Weather at Laburra Airport

Public forecast

Using degrees Celsius for public forecast. Weather courtesy of forecast.io.

Closest aviation weather report (METAR) to Laburra Airport

Closest report is Nyeri Airport, 4.4 nm (8.1 km) SSE.

2022/12/04 11:00 (retrieved 1 hour ago)

HKNI 041100Z 14006KT 9999 BKN021 21/16

Closest aviation forecast (TAF) to Laburra Airport

Closest forecast is Jomo Kenyatta International Airport, 61.3 nm (113.5 km) S.

2022/12/04 12:00 (retrieved 11 minutes ago)

TAF HKJK 041100Z 0412/0518 06015KT 9999 BKN027 PROB30 TEMPO 0413/0417 -SHRA FEW023CB SCT024 BKN080 BECMG 0420/0423 04005KT BKN021 BECMG 0508/0511 BKN025